sensor_id;sensor_type;location;lat;lon;timestamp;temperature;humidity
66337;SHT30;53139;45.576;5.304;2023-07-24T00:00:38;25.13;64.79
66337;SHT30;53139;45.576;5.304;2023-07-24T00:03:40;25.06;64.43
66337;SHT30;53139;45.576;5.304;2023-07-24T00:06:40;24.93;65.89
66337;SHT30;53139;45.576;5.304;2023-07-24T00:09:41;25.06;65.38
66337;SHT30;53139;45.576;5.304;2023-07-24T00:12:41;25.07;64.88
66337;SHT30;53139;45.576;5.304;2023-07-24T00:15:42;25.09;65.19
66337;SHT30;53139;45.576;5.304;2023-07-24T00:18:42;25.11;64.89
66337;SHT30;53139;45.576;5.304;2023-07-24T00:21:43;24.99;65.63
66337;SHT30;53139;45.576;5.304;2023-07-24T00:24:43;25.07;64.62
66337;SHT30;53139;45.576;5.304;2023-07-24T00:27:44;25.02;65.11
66337;SHT30;53139;45.576;5.304;2023-07-24T00:30:44;25.06;65.18
66337;SHT30;53139;45.576;5.304;2023-07-24T00:33:44;25.06;65.10
66337;SHT30;53139;45.576;5.304;2023-07-24T00:36:45;24.92;65.44
66337;SHT30;53139;45.576;5.304;2023-07-24T00:39:45;24.87;65.65
66337;SHT30;53139;45.576;5.304;2023-07-24T00:42:48;24.64;66.09
66337;SHT30;53139;45.576;5.304;2023-07-24T00:45:49;24.44;67.65
66337;SHT30;53139;45.576;5.304;2023-07-24T00:48:50;24.45;66.54
66337;SHT30;53139;45.576;5.304;2023-07-24T00:51:51;24.44;67.19
66337;SHT30;53139;45.576;5.304;2023-07-24T00:54:53;24.24;67.62
66337;SHT30;53139;45.576;5.304;2023-07-24T00:57:53;24.27;68.13
66337;SHT30;53139;45.576;5.304;2023-07-24T01:00:54;24.37;67.95
66337;SHT30;53139;45.576;5.304;2023-07-24T01:03:56;24.28;67.80
66337;SHT30;53139;45.576;5.304;2023-07-24T01:06:57;24.38;67.30
66337;SHT30;53139;45.576;5.304;2023-07-24T01:09:57;24.31;68.28
66337;SHT30;53139;45.576;5.304;2023-07-24T01:13:19;24.21;67.94
66337;SHT30;53139;45.576;5.304;2023-07-24T01:16:21;24.16;66.86
66337;SHT30;53139;45.576;5.304;2023-07-24T01:19:41;24.13;67.36
66337;SHT30;53139;45.576;5.304;2023-07-24T01:23:02;24.27;68.94
66337;SHT30;53139;45.576;5.304;2023-07-24T01:26:05;24.20;68.83
66337;SHT30;53139;45.576;5.304;2023-07-24T01:29:06;24.34;68.05
66337;SHT30;53139;45.576;5.304;2023-07-24T01:32:07;24.25;67.76
66337;SHT30;53139;45.576;5.304;2023-07-24T01:35:07;24.25;68.55
66337;SHT30;53139;45.576;5.304;2023-07-24T01:38:08;24.28;67.98
66337;SHT30;53139;45.576;5.304;2023-07-24T01:41:08;23.84;70.47
66337;SHT30;53139;45.576;5.304;2023-07-24T01:44:09;21.97;79.11
66337;SHT30;53139;45.576;5.304;2023-07-24T01:47:10;21.57;81.59
66337;SHT30;53139;45.576;5.304;2023-07-24T01:50:10;20.73;90.56
66337;SHT30;53139;45.576;5.304;2023-07-24T01:53:11;20.97;94.98
66337;SHT30;53139;45.576;5.304;2023-07-24T01:56:11;20.69;94.55
66337;SHT30;53139;45.576;5.304;2023-07-24T01:59:11;20.85;96.66
66337;SHT30;53139;45.576;5.304;2023-07-24T02:02:12;20.57;97.93
66337;SHT30;53139;45.576;5.304;2023-07-24T02:05:12;20.42;98.36
66337;SHT30;53139;45.576;5.304;2023-07-24T02:08:13;20.67;97.14
66337;SHT30;53139;45.576;5.304;2023-07-24T02:11:13;20.76;98.23
66337;SHT30;53139;45.576;5.304;2023-07-24T02:14:14;20.91;96.86
66337;SHT30;53139;45.576;5.304;2023-07-24T02:17:17;20.83;95.20
66337;SHT30;53139;45.576;5.304;2023-07-24T02:20:17;21.01;96.94
66337;SHT30;53139;45.576;5.304;2023-07-24T02:23:18;20.98;97.20
66337;SHT30;53139;45.576;5.304;2023-07-24T02:26:18;20.88;96.67
66337;SHT30;53139;45.576;5.304;2023-07-24T02:29:18;20.81;96.01
66337;SHT30;53139;45.576;5.304;2023-07-24T02:32:19;20.62;97.88
66337;SHT30;53139;45.576;5.304;2023-07-24T02:35:22;20.81;98.11
66337;SHT30;53139;45.576;5.304;2023-07-24T02:38:22;20.50;97.88
66337;SHT30;53139;45.576;5.304;2023-07-24T02:41:23;20.55;97.28
66337;SHT30;53139;45.576;5.304;2023-07-24T02:44:23;20.62;95.73
66337;SHT30;53139;45.576;5.304;2023-07-24T02:47:23;20.35;97.62
66337;SHT30;53139;45.576;5.304;2023-07-24T02:50:24;20.32;96.50
66337;SHT30;53139;45.576;5.304;2023-07-24T02:53:24;20.21;97.60
66337;SHT30;53139;45.576;5.304;2023-07-24T02:56:24;20.04;97.99
66337;SHT30;53139;45.576;5.304;2023-07-24T02:59:25;19.88;98.68
66337;SHT30;53139;45.576;5.304;2023-07-24T03:02:25;19.92;98.37
66337;SHT30;53139;45.576;5.304;2023-07-24T03:05:26;19.84;98.19
66337;SHT30;53139;45.576;5.304;2023-07-24T03:08:26;19.85;99.17
66337;SHT30;53139;45.576;5.304;2023-07-24T03:11:26;19.81;98.88
66337;SHT30;53139;45.576;5.304;2023-07-24T03:14:27;19.73;99.06
66337;SHT30;53139;45.576;5.304;2023-07-24T03:17:27;19.67;98.79
66337;SHT30;53139;45.576;5.304;2023-07-24T03:20:28;19.75;99.50
66337;SHT30;53139;45.576;5.304;2023-07-24T03:23:28;19.70;99.11
66337;SHT30;53139;45.576;5.304;2023-07-24T03:26:28;19.71;99.02
66337;SHT30;53139;45.576;5.304;2023-07-24T03:29:29;19.71;98.95
66337;SHT30;53139;45.576;5.304;2023-07-24T03:32:29;19.71;99.29
66337;SHT30;53139;45.576;5.304;2023-07-24T03:35:29;19.69;99.53
66337;SHT30;53139;45.576;5.304;2023-07-24T03:38:30;19.66;98.28
66337;SHT30;53139;45.576;5.304;2023-07-24T03:41:30;19.63;98.29
66337;SHT30;53139;45.576;5.304;2023-07-24T03:44:30;19.62;97.16
66337;SHT30;53139;45.576;5.304;2023-07-24T03:47:31;19.57;98.02
66337;SHT30;53139;45.576;5.304;2023-07-24T03:50:31;19.55;97.79
66337;SHT30;53139;45.576;5.304;2023-07-24T03:53:32;19.56;97.59
66337;SHT30;53139;45.576;5.304;2023-07-24T03:56:32;19.50;97.75
66337;SHT30;53139;45.576;5.304;2023-07-24T03:59:32;19.47;99.20
66337;SHT30;53139;45.576;5.304;2023-07-24T04:02:33;19.52;98.39
66337;SHT30;53139;45.576;5.304;2023-07-24T04:05:34;19.57;99.20
66337;SHT30;53139;45.576;5.304;2023-07-24T04:08:35;19.60;98.50
66337;SHT30;53139;45.576;5.304;2023-07-24T04:11:35;19.60;97.71
66337;SHT30;53139;45.576;5.304;2023-07-24T04:14:38;19.56;98.85
66337;SHT30;53139;45.576;5.304;2023-07-24T04:17:38;19.59;99.87
66337;SHT30;53139;45.576;5.304;2023-07-24T04:20:40;19.63;99.17
66337;SHT30;53139;45.576;5.304;2023-07-24T04:23:41;19.56;99.49
66337;SHT30;53139;45.576;5.304;2023-07-24T04:26:41;19.46;99.99
66337;SHT30;53139;45.576;5.304;2023-07-24T04:29:42;19.49;99.99
66337;SHT30;53139;45.576;5.304;2023-07-24T04:32:42;19.45;99.98
66337;SHT30;53139;45.576;5.304;2023-07-24T04:35:43;19.43;98.75
66337;SHT30;53139;45.576;5.304;2023-07-24T04:38:43;19.40;99.99
66337;SHT30;53139;45.576;5.304;2023-07-24T04:41:44;19.42;99.99
66337;SHT30;53139;45.576;5.304;2023-07-24T04:44:44;19.42;99.99
66337;SHT30;53139;45.576;5.304;2023-07-24T04:47:44;19.49;98.27
66337;SHT30;53139;45.576;5.304;2023-07-24T04:50:45;19.46;98.68
66337;SHT30;53139;45.576;5.304;2023-07-24T04:53:45;19.53;98.21
66337;SHT30;53139;45.576;5.304;2023-07-24T04:56:45;19.55;97.93
66337;SHT30;53139;45.576;5.304;2023-07-24T04:59:46;19.50;99.69
66337;SHT30;53139;45.576;5.304;2023-07-24T05:02:46;19.43;99.16
66337;SHT30;53139;45.576;5.304;2023-07-24T05:05:56;19.46;98.54
66337;SHT30;53139;45.576;5.304;2023-07-24T05:08:57;19.38;98.91
66337;SHT30;53139;45.576;5.304;2023-07-24T05:11:57;19.38;99.70
66337;SHT30;53139;45.576;5.304;2023-07-24T05:14:57;19.29;99.07
66337;SHT30;53139;45.576;5.304;2023-07-24T05:17:58;19.33;99.44
66337;SHT30;53139;45.576;5.304;2023-07-24T05:20:58;19.18;98.98
66337;SHT30;53139;45.576;5.304;2023-07-24T05:23:58;19.25;99.86
66337;SHT30;53139;45.576;5.304;2023-07-24T05:26:59;19.28;99.10
66337;SHT30;53139;45.576;5.304;2023-07-24T05:29:59;19.18;98.45
66337;SHT30;53139;45.576;5.304;2023-07-24T05:33:00;19.16;98.49
66337;SHT30;53139;45.576;5.304;2023-07-24T05:36:02;19.16;98.31
66337;SHT30;53139;45.576;5.304;2023-07-24T05:39:03;19.09;98.41
66337;SHT30;53139;45.576;5.304;2023-07-24T05:42:03;19.26;99.99
66337;SHT30;53139;45.576;5.304;2023-07-24T05:45:06;19.22;98.92
66337;SHT30;53139;45.576;5.304;2023-07-24T05:48:06;19.29;98.90
66337;SHT30;53139;45.576;5.304;2023-07-24T05:51:06;19.26;98.65
66337;SHT30;53139;45.576;5.304;2023-07-24T05:54:07;19.20;97.92
66337;SHT30;53139;45.576;5.304;2023-07-24T05:57:07;19.19;99.19
66337;SHT30;53139;45.576;5.304;2023-07-24T06:00:08;19.18;99.57
66337;SHT30;53139;45.576;5.304;2023-07-24T06:03:08;19.26;99.10
66337;SHT30;53139;45.576;5.304;2023-07-24T06:06:09;19.35;98.52
66337;SHT30;53139;45.576;5.304;2023-07-24T06:09:09;19.46;98.06
66337;SHT30;53139;45.576;5.304;2023-07-24T06:12:09;19.56;97.59
66337;SHT30;53139;45.576;5.304;2023-07-24T06:15:10;19.59;97.96
66337;SHT30;53139;45.576;5.304;2023-07-24T06:18:10;20.24;97.67
66337;SHT30;53139;45.576;5.304;2023-07-24T06:21:11;20.39;95.12
66337;SHT30;53139;45.576;5.304;2023-07-24T06:24:11;20.42;93.91
66337;SHT30;53139;45.576;5.304;2023-07-24T06:27:12;20.01;96.76
66337;SHT30;53139;45.576;5.304;2023-07-24T06:30:13;20.12;97.98
66337;SHT30;53139;45.576;5.304;2023-07-24T06:33:13;20.43;97.17
66337;SHT30;53139;45.576;5.304;2023-07-24T06:36:13;21.15;97.37
66337;SHT30;53139;45.576;5.304;2023-07-24T06:39:14;21.18;95.75
66337;SHT30;53139;45.576;5.304;2023-07-24T06:42:14;21.32;95.19
66337;SHT30;53139;45.576;5.304;2023-07-24T06:45:14;21.05;97.16
66337;SHT30;53139;45.576;5.304;2023-07-24T06:48:15;20.87;99.28
66337;SHT30;53139;45.576;5.304;2023-07-24T06:51:15;20.67;99.08
66337;SHT30;53139;45.576;5.304;2023-07-24T06:54:16;20.24;98.62
66337;SHT30;53139;45.576;5.304;2023-07-24T06:57:16;20.07;97.81
66337;SHT30;53139;45.576;5.304;2023-07-24T07:00:17;20.02;98.02
66337;SHT30;53139;45.576;5.304;2023-07-24T07:03:17;20.32;97.97
66337;SHT30;53139;45.576;5.304;2023-07-24T07:06:17;20.40;98.83
66337;SHT30;53139;45.576;5.304;2023-07-24T07:09:18;20.63;96.15
66337;SHT30;53139;45.576;5.304;2023-07-24T07:12:18;21.07;96.22
66337;SHT30;53139;45.576;5.304;2023-07-24T07:15:19;21.22;96.66
66337;SHT30;53139;45.576;5.304;2023-07-24T07:18:19;21.34;94.75
66337;SHT30;53139;45.576;5.304;2023-07-24T07:21:19;21.67;93.78
66337;SHT30;53139;45.576;5.304;2023-07-24T07:24:20;22.35;93.19
66337;SHT30;53139;45.576;5.304;2023-07-24T07:27:20;22.24;92.00
66337;SHT30;53139;45.576;5.304;2023-07-24T07:30:21;21.93;91.23
66337;SHT30;53139;45.576;5.304;2023-07-24T07:33:21;21.83;91.10
66337;SHT30;53139;45.576;5.304;2023-07-24T07:36:25;21.43;89.33
66337;SHT30;53139;45.576;5.304;2023-07-24T07:39:25;21.36;89.29
66337;SHT30;53139;45.576;5.304;2023-07-24T07:42:25;21.24;89.18
66337;SHT30;53139;45.576;5.304;2023-07-24T07:45:26;21.35;90.55
66337;SHT30;53139;45.576;5.304;2023-07-24T07:48:26;21.28;87.88
66337;SHT30;53139;45.576;5.304;2023-07-24T07:51:26;21.35;88.40
66337;SHT30;53139;45.576;5.304;2023-07-24T07:54:30;21.25;88.00
66337;SHT30;53139;45.576;5.304;2023-07-24T07:57:31;21.17;88.52
66337;SHT30;53139;45.576;5.304;2023-07-24T08:00:31;21.22;89.87
66337;SHT30;53139;45.576;5.304;2023-07-24T08:03:32;21.35;88.65
66337;SHT30;53139;45.576;5.304;2023-07-24T08:06:33;21.45;87.97
66337;SHT30;53139;45.576;5.304;2023-07-24T08:09:33;21.57;87.94
66337;SHT30;53139;45.576;5.304;2023-07-24T08:12:34;21.60;87.47
66337;SHT30;53139;45.576;5.304;2023-07-24T08:15:35;21.70;86.46
66337;SHT30;53139;45.576;5.304;2023-07-24T08:18:36;21.60;87.52
66337;SHT30;53139;45.576;5.304;2023-07-24T08:21:36;21.66;86.04
66337;SHT30;53139;45.576;5.304;2023-07-24T08:24:39;21.57;86.71
66337;SHT30;53139;45.576;5.304;2023-07-24T08:27:39;21.43;88.68
66337;SHT30;53139;45.576;5.304;2023-07-24T08:30:40;21.43;88.30
66337;SHT30;53139;45.576;5.304;2023-07-24T08:33:43;20.81;90.96
66337;SHT30;53139;45.576;5.304;2023-07-24T08:36:43;20.73;91.43
66337;SHT30;53139;45.576;5.304;2023-07-24T08:39:44;21.11;90.17
66337;SHT30;53139;45.576;5.304;2023-07-24T08:42:44;20.95;92.03
66337;SHT30;53139;45.576;5.304;2023-07-24T08:45:45;21.11;90.71
66337;SHT30;53139;45.576;5.304;2023-07-24T08:48:45;21.11;91.57
66337;SHT30;53139;45.576;5.304;2023-07-24T08:51:46;20.84;93.04
66337;SHT30;53139;45.576;5.304;2023-07-24T08:54:47;20.97;92.88
66337;SHT30;53139;45.576;5.304;2023-07-24T08:57:48;21.05;92.10
66337;SHT30;53139;45.576;5.304;2023-07-24T09:00:49;21.28;90.34
66337;SHT30;53139;45.576;5.304;2023-07-24T09:03:51;21.14;90.69
66337;SHT30;53139;45.576;5.304;2023-07-24T09:06:52;20.62;93.02
66337;SHT30;53139;45.576;5.304;2023-07-24T09:09:53;20.21;97.23
66337;SHT30;53139;45.576;5.304;2023-07-24T09:12:54;20.50;95.68
66337;SHT30;53139;45.576;5.304;2023-07-24T09:15:55;20.91;97.65
66337;SHT30;53139;45.576;5.304;2023-07-24T09:18:55;21.45;94.28
66337;SHT30;53139;45.576;5.304;2023-07-24T09:22:16;22.37;90.32
66337;SHT30;53139;45.576;5.304;2023-07-24T09:25:33;26.27;80.10
66337;SHT30;53139;45.576;5.304;2023-07-24T09:28:34;29.77;67.10
66337;SHT30;53139;45.576;5.304;2023-07-24T09:31:35;30.33;67.43
66337;SHT30;53139;45.576;5.304;2023-07-24T09:34:42;26.59;77.56
66337;SHT30;53139;45.576;5.304;2023-07-24T09:37:42;27.55;74.90
66337;SHT30;53139;45.576;5.304;2023-07-24T09:40:46;32.04;62.33
66337;SHT30;53139;45.576;5.304;2023-07-24T09:43:47;31.21;65.15
66337;SHT30;53139;45.576;5.304;2023-07-24T09:46:47;31.54;65.26
66337;SHT30;53139;45.576;5.304;2023-07-24T09:49:48;31.97;61.04
66337;SHT30;53139;45.576;5.304;2023-07-24T09:52:49;30.70;66.38
66337;SHT30;53139;45.576;5.304;2023-07-24T09:56:03;30.94;63.42
66337;SHT30;53139;45.576;5.304;2023-07-24T09:59:05;32.52;58.05
66337;SHT30;53139;45.576;5.304;2023-07-24T10:02:10;30.43;62.21
66337;SHT30;53139;45.576;5.304;2023-07-24T10:05:11;31.25;56.25
66337;SHT30;53139;45.576;5.304;2023-07-24T10:08:14;33.45;54.07
66337;SHT30;53139;45.576;5.304;2023-07-24T10:11:15;32.62;51.83
66337;SHT30;53139;45.576;5.304;2023-07-24T10:14:15;30.33;56.54
66337;SHT30;53139;45.576;5.304;2023-07-24T10:17:34;29.19;59.54
66337;SHT30;53139;45.576;5.304;2023-07-24T10:20:40;29.10;61.24
66337;SHT30;53139;45.576;5.304;2023-07-24T10:23:43;35.45;47.15
66337;SHT30;53139;45.576;5.304;2023-07-24T10:26:44;34.99;47.15
66337;SHT30;53139;45.576;5.304;2023-07-24T10:29:44;33.99;51.88
66337;SHT30;53139;45.576;5.304;2023-07-24T10:32:47;37.89;47.02
66337;SHT30;53139;45.576;5.304;2023-07-24T10:35:53;35.31;44.80
66337;SHT30;53139;45.576;5.304;2023-07-24T10:38:55;32.67;51.28
66337;SHT30;53139;45.576;5.304;2023-07-24T10:42:05;30.74;53.33
66337;SHT30;53139;45.576;5.304;2023-07-24T10:45:07;31.40;52.26
66337;SHT30;53139;45.576;5.304;2023-07-24T10:48:07;35.07;45.16
66337;SHT30;53139;45.576;5.304;2023-07-24T10:51:12;31.76;49.95
66337;SHT30;53139;45.576;5.304;2023-07-24T10:54:21;36.15;42.14
66337;SHT30;53139;45.576;5.304;2023-07-24T10:57:26;34.35;47.40
66337;SHT30;53139;45.576;5.304;2023-07-24T11:00:27;34.06;50.63
66337;SHT30;53139;45.576;5.304;2023-07-24T11:03:27;35.50;44.98
66337;SHT30;53139;45.576;5.304;2023-07-24T11:06:28;33.85;46.94
66337;SHT30;53139;45.576;5.304;2023-07-24T11:09:38;32.35;50.14
66337;SHT30;53139;45.576;5.304;2023-07-24T11:12:40;33.82;51.60
66337;SHT30;53139;45.576;5.304;2023-07-24T11:15:40;36.66;40.48
66337;SHT30;53139;45.576;5.304;2023-07-24T11:18:46;38.35;41.18
66337;SHT30;53139;45.576;5.304;2023-07-24T11:21:47;32.11;50.10
66337;SHT30;53139;45.576;5.304;2023-07-24T11:24:47;38.29;39.36
66337;SHT30;53139;45.576;5.304;2023-07-24T11:27:48;35.02;46.03
66337;SHT30;53139;45.576;5.304;2023-07-24T11:30:48;29.56;53.31
66337;SHT30;53139;45.576;5.304;2023-07-24T11:33:49;30.70;51.82
66337;SHT30;53139;45.576;5.304;2023-07-24T11:36:50;29.88;54.74
66337;SHT30;53139;45.576;5.304;2023-07-24T11:40:01;30.43;54.43
66337;SHT30;53139;45.576;5.304;2023-07-24T11:43:22;30.06;56.32
66337;SHT30;53139;45.576;5.304;2023-07-24T11:46:26;31.56;52.87
66337;SHT30;53139;45.576;5.304;2023-07-24T11:49:28;32.46;50.88
66337;SHT30;53139;45.576;5.304;2023-07-24T11:52:42;32.38;52.26
66337;SHT30;53139;45.576;5.304;2023-07-24T11:55:45;32.27;52.33
66337;SHT30;53139;45.576;5.304;2023-07-24T11:58:46;35.21;47.07
66337;SHT30;53139;45.576;5.304;2023-07-24T12:01:47;36.75;47.41
66337;SHT30;53139;45.576;5.304;2023-07-24T12:04:54;33.48;51.70
66337;SHT30;53139;45.576;5.304;2023-07-24T12:07:55;31.72;49.86
66337;SHT30;53139;45.576;5.304;2023-07-24T12:10:55;29.92;52.92
66337;SHT30;53139;45.576;5.304;2023-07-24T12:13:55;29.23;55.36
66337;SHT30;53139;45.576;5.304;2023-07-24T12:17:03;29.09;56.92
66337;SHT30;53139;45.576;5.304;2023-07-24T12:20:04;28.68;56.75
66337;SHT30;53139;45.576;5.304;2023-07-24T12:23:06;28.39;56.80
66337;SHT30;53139;45.576;5.304;2023-07-24T12:26:06;28.02;57.96
66337;SHT30;53139;45.576;5.304;2023-07-24T12:29:07;27.75;61.78
66337;SHT30;53139;45.576;5.304;2023-07-24T12:32:07;25.79;67.13
66337;SHT30;53139;45.576;5.304;2023-07-24T12:35:09;24.62;71.95
66337;SHT30;53139;45.576;5.304;2023-07-24T12:38:09;27.16;66.47
66337;SHT30;53139;45.576;5.304;2023-07-24T12:41:10;25.09;72.07
66337;SHT30;53139;45.576;5.304;2023-07-24T12:44:13;23.76;79.55
66337;SHT30;53139;45.576;5.304;2023-07-24T12:47:14;22.60;84.77
66337;SHT30;53139;45.576;5.304;2023-07-24T12:50:14;22.31;89.42
66337;SHT30;53139;45.576;5.304;2023-07-24T12:53:14;22.37;94.02
66337;SHT30;53139;45.576;5.304;2023-07-24T12:56:15;22.74;96.49
66337;SHT30;53139;45.576;5.304;2023-07-24T12:59:16;24.77;93.22
66337;SHT30;53139;45.576;5.304;2023-07-24T13:02:16;28.05;89.17
66337;SHT30;53139;45.576;5.304;2023-07-24T13:05:17;28.51;85.59
66337;SHT30;53139;45.576;5.304;2023-07-24T13:08:17;28.65;85.45
66337;SHT30;53139;45.576;5.304;2023-07-24T13:11:22;30.29;78.17
66337;SHT30;53139;45.576;5.304;2023-07-24T13:14:22;26.02;85.80
66337;SHT30;53139;45.576;5.304;2023-07-24T13:17:23;26.40;82.93
66337;SHT30;53139;45.576;5.304;2023-07-24T13:20:24;27.44;82.20
66337;SHT30;53139;45.576;5.304;2023-07-24T13:23:25;27.17;84.24
66337;SHT30;53139;45.576;5.304;2023-07-24T13:26:25;29.93;79.55
66337;SHT30;53139;45.576;5.304;2023-07-24T13:29:26;28.32;75.59
66337;SHT30;53139;45.576;5.304;2023-07-24T13:32:29;30.47;68.27
66337;SHT30;53139;45.576;5.304;2023-07-24T13:35:30;32.33;67.52
66337;SHT30;53139;45.576;5.304;2023-07-24T13:38:30;32.57;65.35
66337;SHT30;53139;45.576;5.304;2023-07-24T13:41:30;30.90;66.55
66337;SHT30;53139;45.576;5.304;2023-07-24T13:44:31;31.76;65.30
66337;SHT30;53139;45.576;5.304;2023-07-24T13:47:32;33.18;61.05
66337;SHT30;53139;45.576;5.304;2023-07-24T13:50:32;31.98;65.87
66337;SHT30;53139;45.576;5.304;2023-07-24T13:53:33;32.76;62.00
66337;SHT30;53139;45.576;5.304;2023-07-24T13:56:33;35.04;58.14
66337;SHT30;53139;45.576;5.304;2023-07-24T13:59:36;36.63;54.10
66337;SHT30;53139;45.576;5.304;2023-07-24T14:02:39;38.25;50.60
66337;SHT30;53139;45.576;5.304;2023-07-24T14:05:39;38.40;49.60
66337;SHT30;53139;45.576;5.304;2023-07-24T14:08:40;36.57;47.32
66337;SHT30;53139;45.576;5.304;2023-07-24T14:11:41;36.03;50.21
66337;SHT30;53139;45.576;5.304;2023-07-24T14:14:41;35.57;53.50
66337;SHT30;53139;45.576;5.304;2023-07-24T14:17:42;35.96;53.35
66337;SHT30;53139;45.576;5.304;2023-07-24T14:20:42;32.84;59.79
66337;SHT30;53139;45.576;5.304;2023-07-24T14:23:42;38.19;49.69
66337;SHT30;53139;45.576;5.304;2023-07-24T14:26:43;37.67;46.98
66337;SHT30;53139;45.576;5.304;2023-07-24T14:29:45;39.17;42.62
66337;SHT30;53139;45.576;5.304;2023-07-24T14:32:45;36.47;49.00
66337;SHT30;53139;45.576;5.304;2023-07-24T14:35:45;38.91;48.39
66337;SHT30;53139;45.576;5.304;2023-07-24T14:38:47;38.28;44.98
66337;SHT30;53139;45.576;5.304;2023-07-24T14:41:47;38.87;45.23
66337;SHT30;53139;45.576;5.304;2023-07-24T14:44:47;38.88;46.83
66337;SHT30;53139;45.576;5.304;2023-07-24T14:47:48;37.16;45.19
66337;SHT30;53139;45.576;5.304;2023-07-24T14:50:51;37.16;48.98
66337;SHT30;53139;45.576;5.304;2023-07-24T14:53:51;35.89;51.64
66337;SHT30;53139;45.576;5.304;2023-07-24T14:56:52;32.86;55.69
66337;SHT30;53139;45.576;5.304;2023-07-24T14:59:52;31.43;57.40
66337;SHT30;53139;45.576;5.304;2023-07-24T15:02:53;31.57;58.45
66337;SHT30;53139;45.576;5.304;2023-07-24T15:05:54;30.35;60.52
66337;SHT30;53139;45.576;5.304;2023-07-24T15:08:57;30.87;59.98
66337;SHT30;53139;45.576;5.304;2023-07-24T15:11:57;34.76;51.73
66337;SHT30;53139;45.576;5.304;2023-07-24T15:14:58;34.51;53.70
66337;SHT30;53139;45.576;5.304;2023-07-24T15:17:59;35.50;52.64
66337;SHT30;53139;45.576;5.304;2023-07-24T15:20:59;36.13;49.62
66337;SHT30;53139;45.576;5.304;2023-07-24T15:24:00;37.05;48.42
66337;SHT30;53139;45.576;5.304;2023-07-24T15:27:00;36.57;48.92
66337;SHT30;53139;45.576;5.304;2023-07-24T15:30:08;36.15;47.48
66337;SHT30;53139;45.576;5.304;2023-07-24T15:33:08;38.43;46.46
66337;SHT30;53139;45.576;5.304;2023-07-24T15:36:08;39.28;47.76
66337;SHT30;53139;45.576;5.304;2023-07-24T15:39:09;38.25;48.53
66337;SHT30;53139;45.576;5.304;2023-07-24T15:42:09;38.15;47.64
66337;SHT30;53139;45.576;5.304;2023-07-24T15:45:10;38.68;44.95
66337;SHT30;53139;45.576;5.304;2023-07-24T15:48:10;39.96;44.73
66337;SHT30;53139;45.576;5.304;2023-07-24T15:51:10;39.26;43.88
66337;SHT30;53139;45.576;5.304;2023-07-24T15:54:11;37.51;47.99
66337;SHT30;53139;45.576;5.304;2023-07-24T15:57:11;35.14;52.88
66337;SHT30;53139;45.576;5.304;2023-07-24T16:00:12;36.84;47.60
66337;SHT30;53139;45.576;5.304;2023-07-24T16:03:13;36.95;47.37
66337;SHT30;53139;45.576;5.304;2023-07-24T16:06:13;37.84;47.62
66337;SHT30;53139;45.576;5.304;2023-07-24T16:09:15;38.57;47.95
66337;SHT30;53139;45.576;5.304;2023-07-24T16:12:15;36.63;46.06
66337;SHT30;53139;45.576;5.304;2023-07-24T16:15:16;37.26;46.19
66337;SHT30;53139;45.576;5.304;2023-07-24T16:18:16;37.63;43.42
66337;SHT30;53139;45.576;5.304;2023-07-24T16:21:17;37.23;45.75
66337;SHT30;53139;45.576;5.304;2023-07-24T16:24:17;34.95;51.35
66337;SHT30;53139;45.576;5.304;2023-07-24T16:27:20;33.53;57.35
66337;SHT30;53139;45.576;5.304;2023-07-24T16:30:20;33.11;57.60
66337;SHT30;53139;45.576;5.304;2023-07-24T16:33:21;33.19;55.21
66337;SHT30;53139;45.576;5.304;2023-07-24T16:36:22;35.71;50.54
66337;SHT30;53139;45.576;5.304;2023-07-24T16:39:22;36.22;50.04
66337;SHT30;53139;45.576;5.304;2023-07-24T16:42:23;36.54;47.81
66337;SHT30;53139;45.576;5.304;2023-07-24T16:45:24;36.29;48.49
66337;SHT30;53139;45.576;5.304;2023-07-24T16:48:24;34.45;54.11
66337;SHT30;53139;45.576;5.304;2023-07-24T16:51:24;34.52;51.80
66337;SHT30;53139;45.576;5.304;2023-07-24T16:54:25;34.27;51.77
66337;SHT30;53139;45.576;5.304;2023-07-24T16:57:25;32.52;56.25
66337;SHT30;53139;45.576;5.304;2023-07-24T17:00:27;31.72;57.62
66337;SHT30;53139;45.576;5.304;2023-07-24T17:03:28;30.65;60.12
66337;SHT30;53139;45.576;5.304;2023-07-24T17:06:28;31.59;55.56
66337;SHT30;53139;45.576;5.304;2023-07-24T17:09:29;31.05;57.64
66337;SHT30;53139;45.576;5.304;2023-07-24T17:12:29;29.46;61.55
66337;SHT30;53139;45.576;5.304;2023-07-24T17:15:30;29.51;61.27
66337;SHT30;53139;45.576;5.304;2023-07-24T17:18:30;28.94;61.34
66337;SHT30;53139;45.576;5.304;2023-07-24T17:21:31;29.49;60.84
66337;SHT30;53139;45.576;5.304;2023-07-24T17:24:31;28.90;63.96
66337;SHT30;53139;45.576;5.304;2023-07-24T17:27:31;28.92;64.38
66337;SHT30;53139;45.576;5.304;2023-07-24T17:30:34;28.12;64.02
66337;SHT30;53139;45.576;5.304;2023-07-24T17:33:35;28.48;63.05
66337;SHT30;53139;45.576;5.304;2023-07-24T17:36:35;28.74;65.61
66337;SHT30;53139;45.576;5.304;2023-07-24T17:39:35;28.36;65.69
66337;SHT30;53139;45.576;5.304;2023-07-24T17:42:36;27.86;66.45
66337;SHT30;53139;45.576;5.304;2023-07-24T17:45:37;27.59;66.20
66337;SHT30;53139;45.576;5.304;2023-07-24T17:48:37;27.77;68.26
66337;SHT30;53139;45.576;5.304;2023-07-24T17:51:38;27.36;67.09
66337;SHT30;53139;45.576;5.304;2023-07-24T17:54:38;26.91;67.95
66337;SHT30;53139;45.576;5.304;2023-07-24T17:57:42;26.72;69.44
66337;SHT30;53139;45.576;5.304;2023-07-24T18:00:46;26.54;68.72
66337;SHT30;53139;45.576;5.304;2023-07-24T18:03:47;26.45;69.45
66337;SHT30;53139;45.576;5.304;2023-07-24T18:06:47;26.31;69.92
66337;SHT30;53139;45.576;5.304;2023-07-24T18:09:48;25.93;71.31
66337;SHT30;53139;45.576;5.304;2023-07-24T18:12:48;26.02;71.91
66337;SHT30;53139;45.576;5.304;2023-07-24T18:15:49;25.65;72.58
66337;SHT30;53139;45.576;5.304;2023-07-24T18:18:49;25.81;71.08
66337;SHT30;53139;45.576;5.304;2023-07-24T18:21:49;25.75;71.90
66337;SHT30;53139;45.576;5.304;2023-07-24T18:24:50;25.47;72.41
66337;SHT30;53139;45.576;5.304;2023-07-24T18:27:51;25.41;71.00
66337;SHT30;53139;45.576;5.304;2023-07-24T18:30:51;25.06;73.52
66337;SHT30;53139;45.576;5.304;2023-07-24T18:33:52;25.24;72.37
66337;SHT30;53139;45.576;5.304;2023-07-24T18:36:52;25.04;72.66
66337;SHT30;53139;45.576;5.304;2023-07-24T18:39:53;25.07;73.62
66337;SHT30;53139;45.576;5.304;2023-07-24T18:42:53;25.17;71.91
66337;SHT30;53139;45.576;5.304;2023-07-24T18:45:54;25.02;73.18
66337;SHT30;53139;45.576;5.304;2023-07-24T18:48:57;24.73;73.38
66337;SHT30;53139;45.576;5.304;2023-07-24T18:51:57;24.51;74.16
66337;SHT30;53139;45.576;5.304;2023-07-24T18:54:58;24.28;74.76
66337;SHT30;53139;45.576;5.304;2023-07-24T18:57:59;24.11;75.88
66337;SHT30;53139;45.576;5.304;2023-07-24T19:00:59;23.93;77.67
66337;SHT30;53139;45.576;5.304;2023-07-24T19:04:00;23.54;79.88